• Join FlightAware (Why Join?)
  • Login
  • US Flag 
03:00AM EDT


 

Airport Tracker/Info


-or-


 

Live Flight TrackerFlight Track Log ✈ RPA3228 ✈ 29-Oct-2013 ✈ KBNA - KDCA

Flight Track Log - Related Links

Times and Time Zones

All times are in EDT time to prevent confusion due to time zone crossing. See the RPA3228 flight status page for this flight to view local times or setup timezone preferences in your user account.

Time Position Orientation Groundspeed Altitude Reporting Facility
EDT Latitude Longitude Course Direction KTS MPH feet Rate Location/Type
07:17AM 36.1500 -86.6833 68° East 164 189 1,500  Level Nashville TRACON
07:17AM 36.1833 -86.6667 22° Northeast 201 231 2,700 2,760 Climbing Nashville TRACON
07:18AM 36.2167 -86.6000 58° Northeast 260 299 5,700 3,060 Climbing Nashville TRACON
07:19AM 36.2414 -86.3269 64° Northeast  Level Estimated
07:19AM 36.2167 -86.5167 90° East 295 339 8,600  Level Nashville TRACON
07:20AM 36.2802 -86.2096 64° Northeast  Level Estimated
07:20AM 36.2053 -86.4447 101° East 305 351 10,800  Level Memphis Center
07:21AM 36.3188 -86.0921 68° East  Level Estimated
07:21AM 36.2036 -86.3317 91° East 330 380 14,000  Level Memphis Center
07:22AM 36.3573 -85.9746 68° East  Level Estimated
07:22AM 36.2017 -86.2058 91° East 341 392 16,900  Level Memphis Center
07:23AM 36.2017 -86.0875 90° East 368 423 18,900 1,980 Climbing Memphis Center
07:25AM 36.3356 -85.7603 63° Northeast 445 512 24,000 1,440 Climbing Indianapolis Center
07:26AM 36.3864 -85.6111 67° East 466 536 24,000 60 Level Indianapolis Center
07:27AM 36.4353 -85.4633 68° East 462 532 24,200 1,140 Climbing Indianapolis Center
07:28AM 36.4850 -85.3147 67° East 463 533 26,400 2,160 Climbing Indianapolis Center
07:29AM 36.5331 -85.1689 68° East 456 525 28,700 1,800 Climbing Indianapolis Center
07:30AM 36.5825 -85.0164 68° East 472 543 30,100 1,080 Climbing Indianapolis Center
07:31AM 36.6347 -84.8611 67° East 482 555 31,000 420 Climbing Indianapolis Center
07:33AM 36.6869 -84.6986 68° East 499 574 31,000 1,080 Level Indianapolis Center
07:34AM 36.7475 -84.5108 68° East 489 563 33,200 2,040 Climbing Indianapolis Center
07:35AM 36.7950 -84.3644 68° East 477 549 35,200 1,320 Climbing Indianapolis Center
07:36AM 36.8425 -84.2139 68° East 468 539 36,000 360 Climbing Indianapolis Center
07:37AM 36.8922 -84.0611 68° East 472 543 36,000  Level Indianapolis Center
07:38AM 36.9414 -83.9069 68° East 475 547 36,000 480 Level Indianapolis Center
07:39AM 36.9917 -83.7553 67° East 474 545 37,000 480 Climbing Indianapolis Center
07:40AM 37.0394 -83.5978 69° East 483 556 37,000  Level Indianapolis Center
07:41AM 37.0975 -83.4094 69° East 493 567 37,000  Level Indianapolis Center
07:42AM 37.1483 -83.2481 68° East 493 567 37,000  Level Indianapolis Center
07:43AM 37.1997 -83.0847 68° East 498 573 37,000  Level Indianapolis Center
07:44AM 37.2489 -82.9197 69° East 498 573 37,000  Level Indianapolis Center
07:45AM 37.2992 -82.7561 69° East 497 572 37,000  Level Indianapolis Center
07:46AM 37.3489 -82.5919 69° East 500 575 37,000  Level Indianapolis Center
07:47AM 37.3994 -82.4269 69° East 502 578 37,000  Level Indianapolis Center
07:48AM 37.4486 -82.2619 69° East 502 578 37,000  Level Indianapolis Center
07:49AM 37.4983 -82.0956 69° East 504 580 37,000  Level Indianapolis Center
07:50AM 37.5467 -81.9306 70° East 502 578 37,000  Level Indianapolis Center
07:51AM 37.5958 -81.7661 69° East 501 577 37,000  Level Indianapolis Center
07:52AM 37.6519 -81.5728 70° East 502 578 37,000  Level Indianapolis Center
07:53AM 37.6947 -81.4228 70° East 500 575 37,000  Level Indianapolis Center
07:54AM 37.7419 -81.2614 70° East 503 579 37,000  Level Indianapolis Center
07:55AM 37.8014 -81.0694 69° East 501 577 37,000  Level Indianapolis Center
07:56AM 37.8578 -80.9086 66° East 497 572 37,000  Level Indianapolis Center
07:57AM 37.9133 -80.7483 66° East 497 572 37,000 -3,960 Level Indianapolis Center
08:02AM 40.1410 -76.3730 66° East 100 115 15,500 -4,080 Descending FlightAware
08:02AM 40.1520 -76.3530 54° Northeast 100 115 15,500  Level FlightAware
08:03AM 40.1600 -76.3380 55° Northeast 100 115 15,500  Level FlightAware
08:04AM 40.1710 -76.3180 54° Northeast 100 115 15,500  Level FlightAware
08:05AM 40.1850 -76.2920 55° Northeast 100 115 15,500  Level FlightAware
08:05AM 40.1870 -76.2870 62° Northeast 100 115 15,500 12,720 Level FlightAware
08:06AM 38.3889 -79.3083 62° Northeast 489 563 32,500 6,720 Climbing Washington Center
08:07AM 38.4350 -79.1594 68° East 483 556 29,900 -2,520 Descending Washington Center
08:08AM 38.4794 -78.9972 71° East 483 556 27,500 -2,160 Descending Washington Center
08:09AM 38.5050 -78.8286 79° East 476 548 25,700 -2,340 Descending Washington Center
08:10AM 38.5325 -78.6492 79° East 469 540 23,000 -1,920 Descending Washington Center
08:11AM 38.5550 -78.5094 78° East 458 527 21,800 -1,320 Descending Washington Center
08:12AM 38.5794 -78.3564 78° East 448 516 20,500 -1,740 Descending Washington Center
08:13AM 38.6142 -78.1956 75° East 437 503 18,400 -1,860 Descending Washington Center
08:14AM 38.6522 -78.0772 68° East 400 460 16,800 -1,800 Descending Washington Center
08:15AM 38.6944 -77.9456 68° East 376 433 14,800 -1,860 Descending Washington Center
08:16AM 38.7297 -77.8456 66° East 348 400 13,200 -1,440 Descending Washington Center
08:18AM 38.8333 -77.6667 53° Northeast 307 353 10,700 -1,320 Descending Potomac TRACON
08:19AM 38.8667 -77.5667 67° East 303 349 9,500 -1,200 Descending Potomac TRACON
08:20AM 38.9000 -77.4833 63° Northeast 300 345 8,300 -1,380 Descending Potomac TRACON
08:21AM 38.8833 -77.3833 102° East 301 346 7,100 -1,260 Descending Potomac TRACON
08:22AM 38.8500 -77.3000 117° Southeast 283 326 6,000 -1,200 Descending Potomac TRACON
08:23AM 38.8167 -77.2167 117° Southeast 274 315 4,700 -1,620 Descending Potomac TRACON
08:24AM 38.7667 -77.1333 128° Southeast 263 303 3,100 -1,380 Descending Potomac TRACON
08:25AM 38.7333 -77.0667 123° Southeast 259 298 2,100 -900 Descending Potomac TRACON
08:26AM 38.7833 -77.0333 27° Northeast 223 257 1,500 -780 Descending Potomac TRACON
08:27AM 38.8167 -77.0167 21° North 146 168 700 -840 Descending Potomac TRACON